Time;durP1;ratioP1;P1;durP2;ratioP2;P2;SDS_P1;SDS_P2;PMS_P1;PMS_P2;Temp;Humidity;BMP_temperature;BMP_pressure;BME280_temperature;BME280_humidity;BME280_pressure;Samples;Min_cycle;Max_cycle;Signal;HPM_P1;HPM_P2
2022/01/03 00:00:44;;;;;;;6.88;2.75;;;17.70;99.90;;;;;;4181970;28;20211;-80
2022/01/03 00:02:47;;;;;;;7.00;2.30;;;17.70;99.90;;;;;;4181820;28;20215;-80
2022/01/03 00:04:53;;;;;;;7.82;2.72;;;17.70;99.90;;;;;;4181977;28;20235;-80
2022/01/03 00:06:57;;;;;;;5.70;2.60;;;17.70;99.90;;;;;;4181574;28;20216;-80
2022/01/03 00:09:03;;;;;;;6.88;2.55;;;17.70;99.90;;;;;;4181898;28;20606;-80
2022/01/03 00:11:07;;;;;;;7.75;2.83;;;17.70;99.90;;;;;;4181748;28;20620;-80
2022/01/03 00:13:09;;;;;;;5.97;2.42;;;17.70;99.90;;;;;;4181566;28;20243;-80
2022/01/03 00:15:14;;;;;;;4.90;2.38;;;17.70;99.90;;;;;;4182030;28;20215;-80
2022/01/03 00:17:16;;;;;;;6.53;2.35;;;17.70;99.90;;;;;;4181652;28;20239;-80
2022/01/03 00:19:19;;;;;;;5.07;2.55;;;17.70;99.90;;;;;;4181618;28;20289;-80
2022/01/03 00:21:29;;;;;;;8.30;3.10;;;17.70;99.90;;;;;;4182005;28;20270;-80
2022/01/03 00:23:37;;;;;;;7.18;2.70;;;17.70;99.90;;;;;;4181709;28;20219;-80
2022/01/03 00:25:43;;;;;;;6.47;2.22;;;17.70;99.90;;;;;;4181052;28;20629;-80
2022/01/03 00:27:57;;;;;;;7.68;2.70;;;17.70;99.90;;;;;;4181010;28;20281;-80
2022/01/03 00:30:00;;;;;;;8.57;3.03;;;17.70;99.90;;;;;;4180826;28;20289;-80
2022/01/03 00:32:08;;;;;;;6.90;2.65;;;17.70;99.90;;;;;;4180668;28;20253;-80
2022/01/03 00:34:13;;;;;;;6.07;2.55;;;17.70;99.90;;;;;;4180691;28;20231;-80
2022/01/03 00:36:16;;;;;;;7.53;2.55;;;17.60;99.90;;;;;;4181395;28;20230;-80
2022/01/03 00:38:20;;;;;;;11.05;3.00;;;17.70;99.90;;;;;;4179493;28;20277;-80
2022/01/03 00:40:22;;;;;;;6.70;2.38;;;17.60;99.90;;;;;;4176239;28;20211;-80
2022/01/03 00:42:24;;;;;;;6.95;2.53;;;17.70;99.90;;;;;;4181172;28;20247;-80
2022/01/03 00:44:28;;;;;;;7.32;2.33;;;17.60;99.90;;;;;;4181468;28;20212;-80
2022/01/03 00:46:33;;;;;;;9.45;2.67;;;17.60;99.90;;;;;;4181248;28;20243;-80
2022/01/03 00:48:36;;;;;;;6.38;2.55;;;17.60;99.90;;;;;;4181489;28;20557;-80
2022/01/03 00:50:39;;;;;;;6.45;2.17;;;17.60;99.90;;;;;;4181481;28;20243;-80
2022/01/03 00:52:42;;;;;;;7.53;2.63;;;17.60;99.90;;;;;;4181177;28;20265;-80
2022/01/03 00:54:44;;;;;;;4.85;2.33;;;17.60;99.90;;;;;;4181152;28;20219;-80
2022/01/03 00:56:48;;;;;;;7.63;2.90;;;17.60;99.90;;;;;;4181232;28;20269;-80
2022/01/03 00:59:00;;;;;;;6.50;2.55;;;17.60;99.90;;;;;;4181006;28;20220;-80
2022/01/03 01:01:04;;;;;;;7.55;2.45;;;17.60;99.90;;;;;;4180787;28;20216;-80
2022/01/03 01:03:11;;;;;;;7.47;2.40;;;17.60;99.90;;;;;;4181314;28;20261;-80
2022/01/03 01:05:13;;;;;;;9.60;2.90;;;17.60;99.90;;;;;;4181099;28;20239;-80
2022/01/03 01:07:17;;;;;;;7.50;2.70;;;17.60;99.90;;;;;;4181630;28;20215;-80
2022/01/03 01:09:21;;;;;;;7.60;2.55;;;17.60;99.90;;;;;;4181597;28;20598;-80
2022/01/03 01:11:28;;;;;;;5.25;2.45;;;17.60;99.90;;;;;;4181030;28;20290;-80
2022/01/03 01:13:31;;;;;;;6.25;2.80;;;17.60;99.90;;;;;;4180966;28;20211;-80
2022/01/03 01:15:34;;;;;;;7.72;2.97;;;17.60;99.90;;;;;;4181167;28;20254;-80
2022/01/03 01:17:37;;;;;;;9.23;2.83;;;17.70;99.90;;;;;;4181183;28;20246;-80
2022/01/03 01:19:41;;;;;;;11.32;3.28;;;17.60;99.90;;;;;;4180949;28;20281;-80
2022/01/03 01:21:43;;;;;;;6.40;2.33;;;17.60;99.90;;;;;;4181305;28;20625;-80
2022/01/03 01:23:49;;;;;;;5.82;2.22;;;17.60;99.90;;;;;;4180853;28;20223;-80
2022/01/03 01:28:14;;;;;;;9.18;2.58;;;17.60;99.90;;;;;;4181418;28;20592;-80
2022/01/03 01:30:18;;;;;;;6.78;2.45;;;17.60;99.90;;;;;;4181395;28;20262;-80
2022/01/03 01:32:20;;;;;;;10.05;2.80;;;17.60;99.90;;;;;;4181010;28;20263;-80
2022/01/03 01:34:28;;;;;;;7.78;3.15;;;17.60;99.90;;;;;;4180799;28;20232;-80
2022/01/03 01:36:32;;;;;;;5.47;2.38;;;17.50;99.90;;;;;;4181029;28;20265;-80
2022/01/03 01:38:37;;;;;;;6.45;2.45;;;17.60;99.90;;;;;;4180793;28;20278;-80
2022/01/03 01:40:47;;;;;;;5.53;2.50;;;17.60;99.90;;;;;;4180964;28;20220;-80
2022/01/03 01:42:50;;;;;;;5.68;2.65;;;17.60;99.90;;;;;;4180794;28;20211;-80
2022/01/03 01:44:53;;;;;;;8.30;2.30;;;17.60;99.90;;;;;;4180789;28;20212;-80
2022/01/03 01:47:01;;;;;;;10.20;3.13;;;17.60;99.90;;;;;;4180934;28;20289;-80
2022/01/03 01:49:06;;;;;;;6.28;2.28;;;17.60;99.90;;;;;;4180897;28;20729;-80
2022/01/03 01:51:16;;;;;;;8.07;2.45;;;17.60;99.90;;;;;;4181530;28;20216;-80
2022/01/03 01:53:23;;;;;;;7.15;2.85;;;17.60;99.90;;;;;;4183820;28;20265;-80
2022/01/03 01:55:25;;;;;;;7.05;2.35;;;17.60;99.90;;;;;;4183823;28;20211;-80
2022/01/03 01:57:47;;;;;;;10.57;3.25;;;17.60;99.90;;;;;;4183842;28;20215;-80
2022/01/03 02:00:02;;;;;;;6.65;2.65;;;17.60;99.90;;;;;;4183870;28;20773;-80
2022/01/03 02:02:07;;;;;;;9.02;2.92;;;17.60;99.90;;;;;;4184096;28;20718;-80
2022/01/03 02:04:19;;;;;;;9.98;2.85;;;17.60;99.90;;;;;;4183510;28;20219;-80
2022/01/03 02:06:30;;;;;;;4.55;2.22;;;17.60;99.90;;;;;;4183931;28;20243;-80
2022/01/03 02:08:39;;;;;;;7.75;2.40;;;17.50;99.90;;;;;;4183736;28;20215;-80
2022/01/03 02:10:43;;;;;;;7.05;2.60;;;17.50;99.90;;;;;;4183803;28;20223;-80
2022/01/03 02:12:48;;;;;;;7.97;2.45;;;17.60;99.90;;;;;;4183607;28;20216;-80
2022/01/03 02:14:53;;;;;;;8.80;2.72;;;17.60;99.90;;;;;;4183684;28;20216;-80
2022/01/03 02:16:55;;;;;;;8.60;3.10;;;17.50;99.90;;;;;;4183446;28;20212;-80
2022/01/03 02:18:58;;;;;;;8.85;2.75;;;17.50;99.90;;;;;;4183432;28;20598;-80
2022/01/03 02:21:03;;;;;;;6.93;2.30;;;17.50;99.90;;;;;;4183566;28;20640;-80
2022/01/03 02:23:05;;;;;;;5.35;2.13;;;17.50;99.90;;;;;;4183765;28;20261;-80
2022/01/03 02:25:10;;;;;;;9.05;2.70;;;17.50;99.90;;;;;;4183556;28;20220;-80
2022/01/03 02:27:12;;;;;;;8.23;2.53;;;17.50;99.90;;;;;;4179574;28;20569;-80
2022/01/03 02:29:14;;;;;;;6.05;2.50;;;17.50;99.90;;;;;;4179848;28;20212;-80
2022/01/03 02:31:17;;;;;;;8.25;2.60;;;17.50;99.90;;;;;;4183482;28;20262;-80
2022/01/03 02:33:20;;;;;;;8.20;2.75;;;17.50;99.90;;;;;;4183494;28;20265;-80
2022/01/03 02:35:23;;;;;;;7.22;2.22;;;17.50;99.90;;;;;;4166985;28;20966;-80
2022/01/03 02:37:27;;;;;;;7.95;2.47;;;17.50;99.90;;;;;;4166864;28;20216;-80
2022/01/03 02:39:29;;;;;;;7.63;2.58;;;17.50;99.90;;;;;;4166910;28;20224;-80
2022/01/03 02:41:32;;;;;;;7.30;2.53;;;17.50;99.90;;;;;;4166744;28;20224;-80
2022/01/03 02:43:34;;;;;;;5.57;2.10;;;17.60;99.90;;;;;;4166495;28;20212;-80
2022/01/03 02:45:37;;;;;;;6.50;2.40;;;17.50;99.90;;;;;;4166868;28;20263;-80
2022/01/03 02:47:40;;;;;;;8.88;2.75;;;17.50;99.90;;;;;;4166327;28;20236;-80
2022/01/03 02:49:42;;;;;;;9.02;2.40;;;17.50;99.90;;;;;;4166468;28;20225;-80
2022/01/03 02:51:47;;;;;;;8.40;2.53;;;17.50;99.90;;;;;;4166682;28;20224;-80
2022/01/03 02:53:51;;;;;;;8.43;2.50;;;17.50;99.90;;;;;;4166295;28;20220;-80
2022/01/03 02:55:53;;;;;;;8.52;2.47;;;17.50;99.90;;;;;;4166076;28;20221;-80
2022/01/03 02:57:59;;;;;;;8.80;2.90;;;17.50;99.90;;;;;;4166506;28;20213;-80
2022/01/03 03:00:02;;;;;;;5.90;2.45;;;17.50;99.90;;;;;;4166462;28;20220;-80
2022/01/03 03:02:05;;;;;;;5.22;2.20;;;17.50;99.90;;;;;;4166296;28;20216;-80
2022/01/03 03:04:07;;;;;;;7.25;2.45;;;17.50;99.90;;;;;;4165799;28;20212;-80
2022/01/03 03:06:09;;;;;;;8.60;2.42;;;17.50;99.90;;;;;;4166094;28;20934;-80
2022/01/03 03:08:13;;;;;;;6.07;2.38;;;17.50;99.90;;;;;;4165464;28;20221;-80
2022/01/03 03:10:18;;;;;;;6.97;2.25;;;17.40;99.90;;;;;;4165830;28;20270;-80
2022/01/03 03:12:23;;;;;;;6.93;2.55;;;17.40;99.90;;;;;;4165970;28;20212;-80
2022/01/03 03:14:25;;;;;;;6.97;2.55;;;17.50;99.90;;;;;;4166455;28;20213;-80
2022/01/03 03:16:27;;;;;;;7.97;2.70;;;17.50;99.90;;;;;;4166268;28;20212;-80
2022/01/03 03:18:30;;;;;;;8.95;2.75;;;17.50;99.90;;;;;;4166381;28;20221;-80
2022/01/03 03:20:33;;;;;;;4.75;2.03;;;17.50;99.90;;;;;;4165856;28;20229;-80
2022/01/03 03:22:36;;;;;;;6.95;2.65;;;17.50;99.90;;;;;;4166477;28;20220;-80
2022/01/03 03:24:39;;;;;;;7.32;2.47;;;17.40;99.90;;;;;;4165908;28;20274;-80
2022/01/03 03:26:42;;;;;;;5.13;2.05;;;17.40;99.90;;;;;;4166201;28;20286;-80
2022/01/03 03:28:45;;;;;;;8.32;2.53;;;17.40;99.90;;;;;;4165796;28;20220;-80
2022/01/03 03:30:48;;;;;;;4.15;2.08;;;17.50;99.90;;;;;;4165775;28;20212;-80
2022/01/03 03:32:53;;;;;;;8.73;2.53;;;17.40;99.90;;;;;;4166010;28;20216;-80
2022/01/03 03:34:55;;;;;;;6.68;2.53;;;17.40;99.90;;;;;;4177920;28;20231;-80
2022/01/03 03:36:58;;;;;;;10.57;2.72;;;17.40;99.90;;;;;;4182601;28;20212;-80
2022/01/03 03:39:00;;;;;;;8.52;2.40;;;17.40;99.90;;;;;;4182370;28;20673;-80
2022/01/03 03:41:03;;;;;;;5.45;2.13;;;17.40;99.90;;;;;;4182139;28;20619;-80
2022/01/03 03:43:07;;;;;;;6.72;2.63;;;17.40;99.90;;;;;;4182269;28;20265;-80
2022/01/03 03:45:10;;;;;;;7.28;2.40;;;17.40;99.90;;;;;;4182088;28;20220;-80
2022/01/03 03:47:13;;;;;;;5.50;2.40;;;17.40;99.90;;;;;;4182186;28;20293;-80
2022/01/03 03:49:15;;;;;;;5.82;2.55;;;17.40;99.90;;;;;;4182210;28;20289;-80
2022/01/03 03:51:17;;;;;;;7.38;2.47;;;17.40;99.90;;;;;;4182049;28;20266;-80
2022/01/03 03:53:20;;;;;;;8.98;2.40;;;17.40;99.90;;;;;;4181789;28;20212;-80
2022/01/03 03:55:23;;;;;;;9.07;2.78;;;17.40;99.90;;;;;;4181825;28;20269;-80
2022/01/03 03:57:25;;;;;;;7.35;2.50;;;17.40;99.90;;;;;;4182021;28;20215;-80
2022/01/03 03:59:29;;;;;;;7.03;2.17;;;17.40;99.90;;;;;;4182069;28;20219;-80
2022/01/03 04:01:31;;;;;;;6.78;2.28;;;17.40;99.90;;;;;;4182187;28;20220;-80
2022/01/03 04:03:33;;;;;;;8.25;2.55;;;17.40;99.90;;;;;;4182097;28;20219;-80
2022/01/03 04:05:36;;;;;;;6.40;2.28;;;17.40;99.90;;;;;;4182333;28;20265;-80
2022/01/03 04:07:38;;;;;;;6.13;2.20;;;17.40;99.90;;;;;;4181878;28;20239;-80
2022/01/03 04:09:41;;;;;;;8.65;2.40;;;17.40;99.90;;;;;;4181883;28;20277;-80
2022/01/03 04:11:43;;;;;;;7.13;2.50;;;17.40;99.90;;;;;;4182013;28;20224;-80
2022/01/03 04:13:45;;;;;;;6.25;2.35;;;17.40;99.90;;;;;;4181833;28;20246;-80
2022/01/03 04:15:49;;;;;;;7.22;2.17;;;17.40;99.90;;;;;;4176310;28;20261;-80
2022/01/03 04:17:51;;;;;;;7.20;2.63;;;17.40;99.90;;;;;;4179729;28;20208;-80
2022/01/03 04:19:53;;;;;;;8.50;2.42;;;17.40;99.90;;;;;;4181769;28;20277;-80
2022/01/03 04:21:56;;;;;;;7.43;2.42;;;17.40;99.90;;;;;;4181692;28;20207;-80
2022/01/03 04:23:58;;;;;;;5.50;2.28;;;17.30;99.90;;;;;;4181586;28;20219;-80
2022/01/03 04:26:01;;;;;;;6.85;2.42;;;17.40;99.90;;;;;;4181772;28;20273;-80
2022/01/03 04:28:03;;;;;;;6.50;2.63;;;17.40;99.90;;;;;;4181745;28;20243;-80
2022/01/03 04:30:06;;;;;;;7.88;2.35;;;17.40;99.90;;;;;;4181742;28;20298;-80
2022/01/03 04:32:11;;;;;;;7.97;2.38;;;17.40;99.90;;;;;;4181245;28;20293;-80
2022/01/03 04:34:13;;;;;;;5.88;2.40;;;17.40;99.90;;;;;;4174784;28;20240;-80
2022/01/03 04:36:16;;;;;;;6.32;2.63;;;17.30;99.90;;;;;;4164682;28;20270;-80
2022/01/03 04:38:18;;;;;;;8.05;2.50;;;17.30;99.90;;;;;;4156804;28;20259;-80
2022/01/03 04:40:21;;;;;;;5.47;2.15;;;17.30;99.90;;;;;;4148223;28;20217;-80
2022/01/03 04:42:23;;;;;;;5.80;2.00;;;17.30;99.90;;;;;;4152161;28;20208;-80
2022/01/03 04:44:26;;;;;;;7.50;2.47;;;17.30;99.90;;;;;;4165028;28;20610;-80
2022/01/03 04:46:29;;;;;;;9.20;2.65;;;17.30;99.90;;;;;;4165240;28;20212;-80
2022/01/03 04:48:32;;;;;;;5.68;2.15;;;17.30;99.90;;;;;;4164691;28;20631;-80
2022/01/03 04:50:35;;;;;;;6.80;2.00;;;17.30;99.90;;;;;;4164746;28;20271;-80
2022/01/03 04:52:37;;;;;;;7.65;2.13;;;17.30;99.90;;;;;;4164821;28;20259;-80
2022/01/03 04:54:39;;;;;;;7.65;2.50;;;17.30;99.90;;;;;;4165041;28;20266;-80
2022/01/03 04:56:42;;;;;;;8.23;2.28;;;17.30;99.90;;;;;;4164523;28;20212;-80
2022/01/03 04:58:44;;;;;;;8.27;2.67;;;17.30;99.90;;;;;;4164932;28;20287;-80
2022/01/03 05:00:47;;;;;;;10.38;2.75;;;17.30;99.90;;;;;;4165305;28;20212;-80
2022/01/03 05:02:49;;;;;;;6.35;2.28;;;17.30;99.90;;;;;;4165093;28;20662;-80
2022/01/03 05:04:53;;;;;;;7.43;2.30;;;17.30;99.90;;;;;;4164912;28;20243;-80
2022/01/03 05:06:55;;;;;;;7.22;2.28;;;17.40;99.90;;;;;;4165053;28;20224;-80
2022/01/03 05:08:58;;;;;;;6.00;2.10;;;17.30;99.90;;;;;;4164567;28;20236;-80
2022/01/03 05:11:01;;;;;;;8.55;2.15;;;17.30;99.90;;;;;;4164618;28;20642;-80
2022/01/03 05:13:03;;;;;;;7.25;2.20;;;17.30;99.90;;;;;;4164827;28;20228;-80
2022/01/03 05:15:07;;;;;;;8.13;2.90;;;17.30;99.90;;;;;;4165033;28;20558;-80
2022/01/03 05:17:09;;;;;;;8.20;2.38;;;17.30;99.90;;;;;;4164899;28;20220;-80
2022/01/03 05:19:12;;;;;;;8.40;2.35;;;17.30;99.90;;;;;;4164846;28;20266;-80
2022/01/03 05:21:16;;;;;;;8.57;2.30;;;17.30;99.90;;;;;;4164725;28;20216;-80
2022/01/03 05:23:18;;;;;;;10.80;2.72;;;17.30;99.90;;;;;;4164519;28;20216;-80
2022/01/03 05:25:21;;;;;;;7.57;3.00;;;17.30;99.90;;;;;;4164793;28;20220;-80
2022/01/03 05:27:23;;;;;;;7.35;2.45;;;17.30;99.90;;;;;;4166846;28;20224;-80
2022/01/03 05:29:25;;;;;;;6.65;2.38;;;17.30;99.90;;;;;;4167872;28;20224;-80
2022/01/03 05:31:28;;;;;;;9.98;2.80;;;17.30;99.90;;;;;;4168021;28;20266;-80
2022/01/03 05:33:30;;;;;;;9.23;2.65;;;17.30;99.90;;;;;;4168535;28;20715;-79
2022/01/03 05:35:32;;;;;;;7.50;2.40;;;17.30;99.90;;;;;;4184619;28;20281;-80
2022/01/03 05:37:36;;;;;;;7.97;2.72;;;17.30;99.90;;;;;;4184317;28;20274;-80
2022/01/03 05:39:38;;;;;;;8.35;2.70;;;17.30;99.90;;;;;;4184090;28;20220;-80
2022/01/03 05:41:42;;;;;;;5.80;2.00;;;17.30;99.90;;;;;;4184468;28;20326;-80
2022/01/03 05:43:44;;;;;;;6.95;2.60;;;17.30;99.90;;;;;;4183602;28;20211;-80
2022/01/03 05:45:47;;;;;;;7.10;2.53;;;17.30;99.90;;;;;;4184553;28;20204;-80
2022/01/03 05:47:49;;;;;;;8.30;2.30;;;17.30;99.90;;;;;;4183893;28;20688;-80
2022/01/03 05:49:52;;;;;;;6.88;2.40;;;17.30;99.90;;;;;;4184583;28;20609;-80
2022/01/03 05:51:55;;;;;;;7.68;2.50;;;17.20;99.90;;;;;;4184283;28;20216;-80
2022/01/03 05:53:58;;;;;;;7.35;1.80;;;17.30;99.90;;;;;;4184432;28;20223;-80
2022/01/03 05:56:02;;;;;;;7.38;2.40;;;17.20;99.90;;;;;;4184130;28;20220;-80
2022/01/03 05:58:04;;;;;;;6.95;2.42;;;17.20;99.90;;;;;;4183846;28;20278;-80
2022/01/03 06:00:09;;;;;;;7.38;2.50;;;17.20;99.90;;;;;;4183988;28;20216;-80
2022/01/03 06:02:12;;;;;;;7.00;2.15;;;17.20;99.90;;;;;;4183893;28;20273;-81
2022/01/03 06:04:20;;;;;;;8.95;2.25;;;17.20;99.90;;;;;;4177609;28;20262;-80
2022/01/03 06:06:53;;;;;;;5.57;2.10;;;17.30;99.90;;;;;;4191049;28;20211;-80
2022/01/03 06:08:45;;;;;;;5.35;1.98;;;17.30;99.90;;;;;;4199643;28;20239;-80
2022/01/03 06:10:49;;;;;;;5.78;2.13;;;17.40;99.90;;;;;;4200154;28;20729;-80
2022/01/03 06:12:52;;;;;;;7.05;2.30;;;17.40;99.90;;;;;;4200718;28;20615;-80
2022/01/03 06:14:55;;;;;;;6.25;2.13;;;17.40;99.90;;;;;;4200047;28;20215;-80
2022/01/03 06:16:57;;;;;;;5.07;1.98;;;17.40;99.90;;;;;;4200244;28;20215;-80
2022/01/03 06:19:00;;;;;;;5.55;2.20;;;17.50;99.90;;;;;;4200029;28;20713;-80
2022/01/03 06:21:02;;;;;;;6.53;2.30;;;17.50;99.90;;;;;;4200546;28;20261;-80
2022/01/03 06:23:04;;;;;;;6.35;2.13;;;17.50;99.90;;;;;;4200384;28;20261;-80
2022/01/03 06:25:07;;;;;;;6.47;2.10;;;17.50;99.90;;;;;;4200003;28;20238;-80
2022/01/03 06:27:11;;;;;;;5.03;2.00;;;17.50;99.90;;;;;;4200053;28;20667;-80
2022/01/03 06:29:15;;;;;;;7.22;2.30;;;17.50;99.90;;;;;;4200165;28;20239;-80
2022/01/03 06:31:17;;;;;;;6.25;1.83;;;17.60;99.90;;;;;;4199896;28;20269;-80
2022/01/03 06:33:19;;;;;;;7.43;2.35;;;17.60;99.90;;;;;;4199987;28;20219;-80
2022/01/03 06:35:22;;;;;;;4.95;1.95;;;17.50;99.90;;;;;;4199505;28;20257;-80
2022/01/03 06:37:24;;;;;;;5.32;1.90;;;17.50;99.90;;;;;;4199275;28;20618;-80
2022/01/03 06:39:26;;;;;;;6.15;2.10;;;17.60;99.90;;;;;;4199176;28;20265;-80
2022/01/03 06:41:29;;;;;;;6.80;2.15;;;17.60;99.90;;;;;;4199992;28;20243;-80
2022/01/03 06:43:32;;;;;;;6.70;2.25;;;17.60;99.90;;;;;;4186750;28;20220;-80
2022/01/03 06:45:35;;;;;;;5.60;2.17;;;17.60;99.90;;;;;;4183239;28;20615;-80
2022/01/03 06:47:37;;;;;;;7.13;2.10;;;17.60;99.90;;;;;;4183095;28;20600;-80
2022/01/03 06:49:39;;;;;;;4.72;1.80;;;17.60;99.90;;;;;;4183133;28;20240;-80
2022/01/03 06:51:42;;;;;;;5.78;2.00;;;17.60;99.90;;;;;;4182966;28;20211;-80
2022/01/03 06:53:45;;;;;;;6.47;2.25;;;17.60;99.90;;;;;;4182782;28;20220;-80
2022/01/03 06:55:47;;;;;;;6.38;2.15;;;17.60;99.90;;;;;;4182782;28;20231;-80
2022/01/03 06:57:50;;;;;;;5.47;1.85;;;17.60;99.90;;;;;;4182912;28;20220;-80
2022/01/03 06:59:54;;;;;;;6.68;2.53;;;17.60;99.90;;;;;;4182269;28;20212;-80
2022/01/03 07:01:56;;;;;;;7.35;2.42;;;17.60;99.90;;;;;;4182351;28;20266;-80
2022/01/03 07:03:59;;;;;;;6.75;2.22;;;17.60;99.90;;;;;;4182614;28;20208;-80
2022/01/03 07:06:01;;;;;;;5.03;1.73;;;17.60;99.90;;;;;;4182694;28;20246;-80
2022/01/03 07:08:04;;;;;;;3.95;2.00;;;17.60;99.90;;;;;;4182631;28;20270;-79
2022/01/03 07:10:09;;;;;;;5.20;1.83;;;17.60;99.90;;;;;;4182642;28;20297;-80
2022/01/03 07:12:16;;;;;;;5.18;1.90;;;17.70;99.90;;;;;;4182667;28;20215;-80
2022/01/03 07:19:00;;;;;;;5.35;2.17;;;17.70;99.90;;;;;;4182873;28;20196;-80
2022/01/03 07:21:04;;;;;;;4.57;1.85;;;17.70;99.90;;;;;;4182326;28;20258;-80
2022/01/03 07:23:07;;;;;;;5.50;1.80;;;17.70;99.90;;;;;;4182327;28;20278;-80
2022/01/03 07:25:10;;;;;;;7.18;2.35;;;17.70;99.90;;;;;;4182617;28;20227;-80
2022/01/03 07:27:13;;;;;;;3.20;2.00;;;17.70;99.90;;;;;;4182253;28;20215;-80
2022/01/03 07:29:16;;;;;;;6.18;2.00;;;17.70;99.90;;;;;;4182498;28;20244;-80
2022/01/03 07:31:18;;;;;;;5.65;1.98;;;17.70;99.90;;;;;;4182377;28;20652;-80
2022/01/03 07:33:22;;;;;;;5.20;2.00;;;17.80;99.90;;;;;;4182397;28;20216;-80
2022/01/03 07:35:24;;;;;;;5.88;2.20;;;17.70;99.90;;;;;;4181972;28;20289;-80
2022/01/03 07:37:27;;;;;;;7.35;2.35;;;17.80;99.90;;;;;;4182294;28;20274;-80
2022/01/03 07:39:30;;;;;;;4.32;1.80;;;17.80;99.90;;;;;;4182167;28;20216;-80
2022/01/03 07:41:33;;;;;;;5.65;2.20;;;17.80;99.90;;;;;;4182392;28;20261;-80
2022/01/03 07:43:35;;;;;;;4.90;2.00;;;17.80;99.90;;;;;;4181903;28;20257;-80
2022/01/03 07:45:37;;;;;;;5.15;1.77;;;17.80;99.90;;;;;;4182618;28;20257;-80
2022/01/03 07:47:41;;;;;;;4.75;1.50;;;17.80;99.90;;;;;;4182168;28;20257;-80
2022/01/03 07:49:44;;;;;;;6.18;1.73;;;17.80;99.90;;;;;;4181844;28;20235;-80
2022/01/03 07:51:47;;;;;;;7.75;2.25;;;17.80;99.90;;;;;;4179255;28;20273;-80
2022/01/03 07:53:49;;;;;;;4.90;1.77;;;17.80;99.90;;;;;;4184807;28;20219;-80
2022/01/03 07:55:52;;;;;;;6.03;2.20;;;17.80;99.90;;;;;;4198308;28;20211;-80
2022/01/03 07:57:55;;;;;;;4.53;2.00;;;17.80;99.90;;;;;;4198328;28;20215;-80
2022/01/03 07:59:57;;;;;;;4.95;1.83;;;17.90;99.90;;;;;;4198583;28;20219;-80
2022/01/03 08:01:59;;;;;;;5.57;2.10;;;17.90;99.90;;;;;;4198111;28;20264;-80
2022/01/03 08:04:02;;;;;;;5.40;2.05;;;17.90;99.90;;;;;;4198245;28;20223;-80
2022/01/03 08:06:07;;;;;;;6.28;1.92;;;17.90;99.90;;;;;;4198609;28;20214;-80
2022/01/03 08:08:09;;;;;;;4.80;2.00;;;17.90;99.90;;;;;;4198483;28;20557;-80
2022/01/03 08:10:13;;;;;;;6.63;1.80;;;17.90;99.90;;;;;;4197960;28;20699;-80
2022/01/03 08:12:16;;;;;;;7.03;2.15;;;17.90;99.90;;;;;;4198263;28;20264;-80
2022/01/03 08:14:19;;;;;;;4.53;1.73;;;17.90;99.90;;;;;;4198161;28;20215;-80
2022/01/03 08:16:21;;;;;;;5.65;2.00;;;18.00;99.90;;;;;;4198589;28;20261;-80
2022/01/03 08:18:24;;;;;;;7.03;2.38;;;18.00;99.90;;;;;;4197880;28;20223;-80
2022/01/03 08:20:26;;;;;;;8.00;2.00;;;18.00;99.90;;;;;;4198122;28;20260;-80
2022/01/03 08:22:30;;;;;;;5.82;2.10;;;18.00;99.90;;;;;;4198523;28;20210;-80
2022/01/03 08:24:32;;;;;;;6.95;2.03;;;18.00;99.90;;;;;;4198209;28;20284;-80
2022/01/03 08:26:38;;;;;;;6.50;2.05;;;18.00;99.90;;;;;;4198161;28;20277;-80
2022/01/03 08:28:40;;;;;;;5.93;1.90;;;18.10;99.90;;;;;;4198266;28;20660;-80
2022/01/03 08:30:43;;;;;;;6.22;2.17;;;18.10;99.90;;;;;;4198483;28;20231;-80
2022/01/03 08:32:45;;;;;;;6.18;2.10;;;18.10;99.90;;;;;;4198506;28;20664;-80
2022/01/03 08:34:48;;;;;;;5.15;1.98;;;18.10;99.90;;;;;;4197784;28;20578;-80
2022/01/03 08:36:50;;;;;;;5.07;1.92;;;18.10;99.90;;;;;;4198064;28;20215;-80
2022/01/03 08:38:54;;;;;;;5.93;1.90;;;18.10;99.90;;;;;;4198133;28;20215;-80
2022/01/03 08:40:56;;;;;;;4.43;1.90;;;18.10;99.90;;;;;;4197763;28;20266;-80
2022/01/03 08:42:59;;;;;;;6.32;1.98;;;18.10;99.90;;;;;;4189802;28;20208;-79
2022/01/03 08:45:03;;;;;;;7.03;2.20;;;18.20;99.90;;;;;;4181253;28;20212;-80
2022/01/03 08:47:06;;;;;;;5.30;2.05;;;18.10;99.90;;;;;;4181787;28;20192;-80
2022/01/03 08:49:08;;;;;;;4.65;1.73;;;18.20;99.90;;;;;;4181171;28;20664;-80
2022/01/03 08:51:11;;;;;;;6.78;2.17;;;18.10;99.90;;;;;;4181063;28;20246;-80
2022/01/03 08:53:13;;;;;;;5.18;1.80;;;18.10;99.90;;;;;;4181498;28;20211;-80
2022/01/03 08:55:17;;;;;;;6.22;2.55;;;18.20;99.90;;;;;;4181503;28;20216;-80
2022/01/03 08:57:21;;;;;;;4.80;1.85;;;18.20;99.90;;;;;;4181544;28;20269;-80
2022/01/03 08:59:23;;;;;;;5.00;1.85;;;18.20;99.90;;;;;;4181227;28;20269;-80
2022/01/03 09:01:25;;;;;;;7.15;2.47;;;18.20;99.90;;;;;;4183975;28;20281;-80
2022/01/03 09:03:28;;;;;;;4.65;1.85;;;18.20;99.90;;;;;;4186927;28;20239;-80
2022/01/03 09:05:30;;;;;;;5.28;1.95;;;18.20;99.90;;;;;;4186877;28;20223;-80
2022/01/03 09:07:36;;;;;;;4.80;1.98;;;18.20;99.90;;;;;;4186773;28;20241;-80
2022/01/03 09:09:38;;;;;;;4.57;1.90;;;18.20;99.90;;;;;;4186426;28;20285;-80
2022/01/03 09:11:42;;;;;;;5.68;2.20;;;18.20;99.90;;;;;;4186656;28;20261;-80
2022/01/03 09:13:44;;;;;;;5.80;2.03;;;18.30;99.90;;;;;;4186516;28;20215;-80
2022/01/03 09:15:48;;;;;;;6.35;2.38;;;18.30;99.90;;;;;;4186780;28;20211;-80
2022/01/03 09:17:50;;;;;;;5.72;2.17;;;18.30;99.90;;;;;;4186749;28;20241;-80
2022/01/03 09:19:53;;;;;;;4.65;1.90;;;18.30;99.90;;;;;;4186066;28;20269;-80
2022/01/03 09:22:06;;;;;;;5.20;1.70;;;18.30;99.90;;;;;;4186299;28;20219;-80
2022/01/03 09:24:28;;;;;;;3.80;1.85;;;18.30;99.90;;;;;;4186528;28;20265;-80
2022/01/03 09:28:52;;;;;;;3.97;1.73;;;18.30;99.90;;;;;;4186879;28;20196;-80
2022/01/03 09:30:55;;;;;;;5.63;2.08;;;18.30;99.90;;;;;;4186388;28;20289;-80
2022/01/03 09:32:57;;;;;;;6.72;1.85;;;18.40;99.90;;;;;;4186754;28;20211;-80
2022/01/03 09:35:00;;;;;;;3.35;1.42;;;18.30;99.90;;;;;;4186221;28;20633;-80
2022/01/03 09:37:03;;;;;;;4.65;1.88;;;18.30;99.90;;;;;;4186203;28;20273;-80
2022/01/03 09:39:07;;;;;;;4.78;2.03;;;18.30;99.90;;;;;;4186044;28;20220;-80
2022/01/03 09:41:12;;;;;;;4.65;1.85;;;18.30;99.90;;;;;;4179219;28;20626;-80
2022/01/03 09:43:18;;;;;;;5.32;1.90;;;18.30;99.90;;;;;;4186956;28;20261;-80
2022/01/03 09:45:22;;;;;;;3.85;1.77;;;18.40;99.90;;;;;;4186427;28;20276;-80
2022/01/03 09:47:25;;;;;;;4.22;1.65;;;18.40;99.90;;;;;;4186203;28;20219;-80
2022/01/03 09:49:30;;;;;;;5.25;1.80;;;18.40;99.90;;;;;;4186236;28;20219;-80
2022/01/03 09:51:33;;;;;;;4.85;1.95;;;18.40;99.90;;;;;;4186239;28;20265;-80
2022/01/03 09:53:37;;;;;;;7.88;1.80;;;18.40;99.90;;;;;;4186457;28;20715;-80
2022/01/03 09:55:42;;;;;;;6.05;2.00;;;18.50;99.90;;;;;;4186519;28;20207;-80
2022/01/03 09:57:46;;;;;;;6.10;2.00;;;18.50;99.90;;;;;;4186355;28;20277;-80
2022/01/03 09:59:49;;;;;;;5.13;1.85;;;18.50;99.90;;;;;;4186616;28;20264;-80
2022/01/03 10:01:54;;;;;;;6.63;1.80;;;18.50;99.90;;;;;;4186251;28;20224;-80
2022/01/03 10:03:56;;;;;;;5.90;2.10;;;18.50;99.90;;;;;;4186499;28;20192;-80
2022/01/03 10:05:59;;;;;;;5.90;2.15;;;18.50;99.90;;;;;;4186936;28;20191;-80
2022/01/03 10:08:02;;;;;;;6.85;2.25;;;18.50;99.90;;;;;;4186219;28;20227;-80
2022/01/03 10:10:05;;;;;;;6.10;2.13;;;18.50;99.90;;;;;;4185875;28;20273;-80
2022/01/03 10:12:11;;;;;;;4.40;1.73;;;18.50;99.90;;;;;;4185389;28;20265;-80
2022/01/03 10:14:15;;;;;;;5.97;1.63;;;18.50;99.90;;;;;;4183976;28;20224;-79
2022/01/03 10:16:17;;;;;;;5.47;2.30;;;18.50;99.90;;;;;;4183382;28;20220;-80
2022/01/03 10:18:23;;;;;;;8.43;1.88;;;18.60;99.90;;;;;;4183918;28;20626;-80
2022/01/03 10:20:29;;;;;;;5.20;2.10;;;18.60;99.90;;;;;;4183200;28;20277;-80
2022/01/03 10:22:33;;;;;;;6.43;2.00;;;18.60;99.90;;;;;;4182941;28;20273;-80
2022/01/03 10:24:37;;;;;;;5.20;1.73;;;18.60;99.90;;;;;;4183031;28;20223;-80
2022/01/03 10:26:42;;;;;;;4.30;1.80;;;18.60;99.90;;;;;;4183146;28;20269;-80
2022/01/03 10:28:44;;;;;;;7.38;2.13;;;18.60;99.90;;;;;;4182729;28;20625;-80
2022/01/03 10:30:47;;;;;;;5.57;2.20;;;18.60;99.90;;;;;;4182332;28;20285;-80
2022/01/03 10:32:52;;;;;;;6.88;2.20;;;18.60;99.90;;;;;;4182501;28;20242;-80
2022/01/03 10:34:57;;;;;;;5.10;2.03;;;18.60;99.90;;;;;;4182153;28;20235;-80
2022/01/03 10:37:09;;;;;;;6.88;1.70;;;18.70;99.90;;;;;;4182992;28;20269;-80
2022/01/03 10:39:13;;;;;;;4.65;2.20;;;18.70;99.90;;;;;;4183100;28;20215;-80
2022/01/03 10:41:18;;;;;;;5.97;1.85;;;18.70;99.90;;;;;;4183206;28;20208;-80
2022/01/03 10:43:22;;;;;;;5.03;1.77;;;18.60;99.90;;;;;;4183329;28;20216;-80
2022/01/03 10:45:30;;;;;;;6.13;2.10;;;18.70;99.90;;;;;;4183003;28;20216;-80
2022/01/03 10:47:34;;;;;;;5.20;1.92;;;18.70;99.90;;;;;;4182791;28;20241;-80
2022/01/03 10:49:38;;;;;;;6.85;2.25;;;18.70;99.90;;;;;;4183098;28;20219;-80
2022/01/03 10:51:43;;;;;;;5.93;2.25;;;18.70;99.90;;;;;;4182860;28;20371;-80